createdAt,value
2023-03-16T00:01:41.495Z,42.57
2023-03-16T00:04:08.483Z,42.58
2023-03-16T00:06:34.984Z,42.47
2023-03-16T00:09:01.460Z,42.52
2023-03-16T00:11:28.311Z,42.60
2023-03-16T00:13:54.817Z,42.73
2023-03-16T00:16:21.275Z,42.83
2023-03-16T00:18:47.903Z,43.14
2023-03-16T00:21:14.998Z,43.43
2023-03-16T00:23:41.524Z,44.04
2023-03-16T00:26:10.010Z,44.18
2023-03-16T00:28:36.962Z,44.23
2023-03-16T00:31:09.956Z,44.16
2023-03-16T00:33:36.487Z,44.48
2023-03-16T00:36:05.098Z,44.92
2023-03-16T00:38:37.380Z,45.15
2023-03-16T00:41:06.500Z,45.44
2023-03-16T00:43:35.373Z,45.66
2023-03-16T00:46:01.923Z,45.87
2023-03-16T00:48:28.401Z,45.96
2023-03-16T00:50:54.892Z,46.15
2023-03-16T00:53:21.415Z,46.31
2023-03-16T00:55:47.932Z,46.45
2023-03-16T00:58:14.408Z,46.52
2023-03-16T01:00:40.898Z,46.74
2023-03-16T01:03:07.407Z,46.79
2023-03-16T01:05:33.984Z,46.78
2023-03-16T01:08:00.521Z,47.01
2023-03-16T01:10:27.383Z,47.08
2023-03-16T01:12:53.985Z,47.02
2023-03-16T01:15:20.578Z,47.32
2023-03-16T01:17:47.035Z,47.31
2023-03-16T01:20:13.667Z,47.69
2023-03-16T01:22:40.190Z,47.70
2023-03-16T01:25:06.959Z,47.67
2023-03-16T01:27:33.427Z,48.01
2023-03-16T01:29:59.920Z,48.20
2023-03-16T01:32:26.451Z,47.98
2023-03-16T01:34:52.906Z,48.03
2023-03-16T01:37:19.384Z,48.09
2023-03-16T01:39:45.874Z,48.50
2023-03-16T01:42:12.465Z,48.66
2023-03-16T01:44:55.485Z,48.54
2023-03-16T01:47:22.380Z,48.81
2023-03-16T01:49:52.970Z,48.71
2023-03-16T01:52:22.865Z,48.58
2023-03-16T01:55:04.135Z,48.43
2023-03-16T01:57:36.342Z,48.71
2023-03-16T02:00:11.957Z,48.74
2023-03-16T02:02:41.012Z,48.93
2023-03-16T02:05:12.916Z,49.05
2023-03-16T02:07:58.067Z,49.28
2023-03-16T02:10:27.533Z,49.35
2023-03-16T02:12:54.682Z,49.40
2023-03-16T02:15:21.207Z,49.55
2023-03-16T02:17:49.593Z,49.62
2023-03-16T02:20:36.117Z,49.47
2023-03-16T02:23:04.690Z,49.81
2023-03-16T02:25:48.355Z,49.94
2023-03-16T02:28:19.935Z,50.26
2023-03-16T02:30:47.016Z,50.38
2023-03-16T02:33:15.878Z,50.52
2023-03-16T02:35:42.334Z,50.84
2023-03-16T02:38:08.938Z,50.88
2023-03-16T02:40:36.036Z,51.21
2023-03-16T02:43:09.709Z,51.22
2023-03-16T02:45:58.634Z,51.43
2023-03-16T02:49:03.692Z,51.61
2023-03-16T02:51:30.683Z,51.75
2023-03-16T02:53:57.220Z,51.82
2023-03-16T02:56:23.932Z,51.97
2023-03-16T02:58:50.426Z,52.11
2023-03-16T03:01:16.944Z,52.22
2023-03-16T03:03:43.586Z,52.22
2023-03-16T03:06:10.736Z,52.46
2023-03-16T03:08:37.519Z,52.63
2023-03-16T03:11:04.126Z,52.72
2023-03-16T03:13:30.623Z,52.89
2023-03-16T03:15:57.617Z,52.99
2023-03-16T03:18:24.107Z,53.15
2023-03-16T03:20:51.097Z,53.26
2023-03-16T03:23:17.581Z,53.38
2023-03-16T03:25:45.328Z,53.46
2023-03-16T03:28:11.838Z,53.70
2023-03-16T03:30:38.511Z,53.81
2023-03-16T03:33:05.327Z,53.81
2023-03-16T03:35:32.025Z,53.98
2023-03-16T03:37:58.525Z,54.02
2023-03-16T03:40:25.407Z,54.18
2023-03-16T03:42:51.915Z,54.38
2023-03-16T03:45:18.469Z,54.43
2023-03-16T03:47:45.107Z,54.55
2023-03-16T03:50:13.177Z,54.69
2023-03-16T03:52:39.718Z,54.91
2023-03-16T03:55:07.083Z,55.11
2023-03-16T03:57:33.612Z,55.07
2023-03-16T04:00:00.165Z,55.31
2023-03-16T04:02:26.726Z,55.22
2023-03-16T04:04:53.434Z,55.32
2023-03-16T04:07:19.973Z,55.36
2023-03-16T04:09:46.528Z,55.59
2023-03-16T04:12:13.592Z,55.63
2023-03-16T04:14:40.036Z,55.62
2023-03-16T04:17:06.591Z,55.73
2023-03-16T04:19:33.437Z,55.83
2023-03-16T04:21:59.925Z,55.90
2023-03-16T04:24:26.533Z,55.97
2023-03-16T04:26:52.973Z,56.06
2023-03-16T04:29:20.016Z,56.12
2023-03-16T04:31:47.044Z,56.20
2023-03-16T04:34:14.136Z,56.11
2023-03-16T04:36:40.666Z,56.28
2023-03-16T04:39:07.173Z,56.34
2023-03-16T04:41:33.639Z,56.38
2023-03-16T04:44:00.138Z,56.35
2023-03-16T04:46:27.063Z,56.57
2023-03-16T04:48:54.261Z,56.60
2023-03-16T04:51:20.771Z,56.72
2023-03-16T04:53:47.226Z,56.72
2023-03-16T04:56:13.710Z,56.80
2023-03-16T04:58:40.233Z,56.88
2023-03-16T05:01:06.736Z,56.96
2023-03-16T05:03:33.222Z,57.10
2023-03-16T05:05:59.780Z,57.13
2023-03-16T05:08:26.363Z,57.24
2023-03-16T05:11:00.129Z,57.28
2023-03-16T05:13:26.648Z,57.31
2023-03-16T05:15:53.432Z,57.41
2023-03-16T05:18:21.176Z,57.45
2023-03-16T05:20:52.762Z,57.54
2023-03-16T05:23:19.665Z,57.66
2023-03-16T05:25:47.340Z,57.76
2023-03-16T05:28:14.089Z,57.81
2023-03-16T05:30:41.236Z,57.88
2023-03-16T05:33:08.343Z,58.03
2023-03-16T05:35:35.154Z,58.03
2023-03-16T05:38:01.716Z,57.95
2023-03-16T05:40:28.404Z,58.07
2023-03-16T05:42:56.608Z,57.95
2023-03-16T05:45:23.558Z,58.09
2023-03-16T05:47:50.324Z,58.19
2023-03-16T05:50:17.506Z,58.08
2023-03-16T05:52:45.329Z,58.06
2023-03-16T05:55:14.108Z,57.97
2023-03-16T05:57:40.752Z,57.45
2023-03-16T06:00:10.713Z,57.49
2023-03-16T06:02:37.555Z,57.46
2023-03-16T06:05:04.389Z,57.23
2023-03-16T06:07:30.876Z,56.58
2023-03-16T06:09:57.353Z,56.15
2023-03-16T06:12:24.756Z,55.35
2023-03-16T06:14:51.238Z,54.88
2023-03-16T06:17:17.700Z,54.17
2023-03-16T06:19:44.144Z,53.95
2023-03-16T06:22:10.890Z,53.42
2023-03-16T06:24:37.426Z,53.15
2023-03-16T06:27:04.462Z,53.08
2023-03-16T06:29:30.936Z,52.85
2023-03-16T06:31:57.508Z,52.01
2023-03-16T06:34:24.081Z,51.43
2023-03-16T06:36:50.538Z,51.17
2023-03-16T06:39:17.069Z,51.20
2023-03-16T06:41:43.545Z,51.06
2023-03-16T06:44:10.487Z,50.77
2023-03-16T06:46:37.583Z,50.26
2023-03-16T06:49:04.446Z,50.12
2023-03-16T06:51:34.501Z,49.35
2023-03-16T06:54:01.057Z,49.20
2023-03-16T06:56:27.576Z,48.89
2023-03-16T06:58:54.214Z,48.72
2023-03-16T07:01:21.001Z,48.41
2023-03-16T07:03:47.500Z,48.14
2023-03-16T07:06:14.018Z,48.02
2023-03-16T07:08:40.540Z,47.16
2023-03-16T07:11:06.967Z,46.68
2023-03-16T07:13:33.432Z,46.58
2023-03-16T07:15:59.889Z,46.02
2023-03-16T07:18:26.365Z,46.30
2023-03-16T07:20:54.347Z,45.57
2023-03-16T07:23:21.090Z,45.71
2023-03-16T07:25:47.584Z,44.66
2023-03-16T07:28:14.077Z,44.08
2023-03-16T07:30:43.958Z,43.41
2023-03-16T07:33:12.583Z,43.31
2023-03-16T07:35:39.175Z,42.98
2023-03-16T07:38:05.676Z,42.98
2023-03-16T07:40:32.352Z,42.85
2023-03-16T07:42:58.853Z,42.47
2023-03-16T07:45:26.020Z,42.11
2023-03-16T07:47:52.701Z,41.28
2023-03-16T07:50:19.218Z,41.05
2023-03-16T07:52:45.833Z,40.86
2023-03-16T07:55:13.257Z,40.62
2023-03-16T07:57:39.816Z,40.80
2023-03-16T08:00:06.869Z,40.98
2023-03-16T08:02:33.385Z,40.19
2023-03-16T08:05:00.021Z,39.52
2023-03-16T08:07:26.500Z,39.65
2023-03-16T08:09:53.266Z,39.42
2023-03-16T08:12:19.753Z,39.14
2023-03-16T08:14:46.372Z,39.03
2023-03-16T08:17:12.895Z,37.90
2023-03-16T08:19:39.607Z,37.18
2023-03-16T08:22:06.419Z,37.58
2023-03-16T08:24:33.088Z,37.48
2023-03-16T08:27:00.127Z,36.79
2023-03-16T08:29:26.872Z,36.89
2023-03-16T08:31:54.175Z,37.84
2023-03-16T08:34:20.695Z,36.32
2023-03-16T08:36:47.207Z,35.86
2023-03-16T08:39:13.708Z,35.87
2023-03-16T08:41:40.241Z,37.08
2023-03-16T08:44:06.781Z,38.02
2023-03-16T08:46:33.444Z,36.70
2023-03-16T08:49:00.086Z,36.31
2023-03-16T08:51:26.870Z,36.35
2023-03-16T08:53:53.560Z,35.22
2023-03-16T08:56:20.094Z,35.77
2023-03-16T08:58:46.734Z,36.35
2023-03-16T09:01:15.547Z,35.70
2023-03-16T09:03:42.180Z,35.57
2023-03-16T09:06:10.463Z,35.41
2023-03-16T09:08:37.697Z,35.57
2023-03-16T09:11:07.095Z,35.15
2023-03-16T09:13:34.821Z,34.52
2023-03-16T09:16:01.665Z,34.03
2023-03-16T09:18:28.478Z,33.73
2023-03-16T09:21:00.146Z,33.14
2023-03-16T09:23:28.038Z,33.39
2023-03-16T09:25:58.319Z,33.00
2023-03-16T09:28:25.264Z,32.44
2023-03-16T09:30:51.740Z,31.17
2023-03-16T09:33:18.239Z,27.67
2023-03-16T09:35:44.729Z,25.48
2023-03-16T09:38:11.261Z,20.00
2023-03-16T09:40:38.140Z,18.76
2023-03-16T09:43:07.410Z,17.33
2023-03-16T09:45:43.007Z,15.21
2023-03-16T09:48:10.639Z,15.16
2023-03-16T09:50:48.349Z,15.83
2023-03-16T09:53:32.311Z,14.67
2023-03-16T09:56:03.646Z,13.34
2023-03-16T09:58:30.768Z,10.94
2023-03-16T10:01:23.626Z,9.97
2023-03-16T10:03:56.334Z,10.99
2023-03-16T10:06:23.078Z,10.57
2023-03-16T10:09:17.472Z,10.90
2023-03-16T10:11:49.765Z,10.67
2023-03-16T10:14:50.172Z,11.27
2023-03-16T10:17:21.241Z,12.37
2023-03-16T10:19:52.807Z,12.24
2023-03-16T10:22:25.118Z,11.98
2023-03-16T10:25:13.436Z,12.80
2023-03-16T10:27:42.416Z,13.16
2023-03-16T10:30:15.133Z,13.28
2023-03-16T10:32:41.789Z,14.06
2023-03-16T10:35:30.406Z,13.00
2023-03-16T10:37:57.821Z,11.44
2023-03-16T10:40:24.462Z,10.24
2023-03-16T10:42:50.968Z,9.03
2023-03-16T10:45:23.645Z,8.42
2023-03-16T10:47:50.143Z,7.70
2023-03-16T10:50:23.158Z,6.47
2023-03-16T10:52:49.749Z,5.23
2023-03-16T10:55:28.767Z,5.70
2023-03-16T10:57:56.487Z,5.02
2023-03-16T11:00:27.764Z,4.51
2023-03-16T11:02:55.528Z,4.99
2023-03-16T11:05:27.169Z,4.90
2023-03-16T11:07:56.667Z,4.72
2023-03-16T11:10:31.336Z,4.72
2023-03-16T11:13:03.827Z,4.71
2023-03-16T11:15:39.124Z,4.52
2023-03-16T11:18:09.588Z,4.92
2023-03-16T11:20:36.189Z,5.18
2023-03-16T11:23:02.688Z,5.42
2023-03-16T11:25:29.397Z,5.70
2023-03-16T11:28:17.330Z,5.97
2023-03-16T11:31:25.573Z,6.32
2023-03-16T11:33:52.227Z,6.08
2023-03-16T11:36:56.305Z,6.45
2023-03-16T11:39:45.946Z,7.42
2023-03-16T11:42:23.586Z,8.86
2023-03-16T11:44:52.910Z,9.48
2023-03-16T11:47:57.950Z,9.68
2023-03-16T11:51:01.866Z,9.73
2023-03-16T11:53:52.337Z,10.39
2023-03-16T11:56:21.814Z,10.88
2023-03-16T11:59:25.986Z,11.73
2023-03-16T12:02:12.550Z,13.00
2023-03-16T12:05:00.855Z,13.62
2023-03-16T12:07:56.542Z,13.84
2023-03-16T12:10:30.949Z,15.29
2023-03-16T12:13:26.778Z,15.73
2023-03-16T12:15:58.575Z,15.59
2023-03-16T12:18:58.778Z,15.80
2023-03-16T12:21:31.650Z,16.05
2023-03-16T12:24:10.471Z,17.33
2023-03-16T12:26:42.110Z,17.17
2023-03-16T12:29:42.090Z,15.96
2023-03-16T12:32:25.657Z,15.79
2023-03-16T12:35:07.114Z,15.94
2023-03-16T12:37:51.373Z,15.95
2023-03-16T12:40:39.102Z,16.20
2023-03-16T12:43:17.782Z,16.75
2023-03-16T12:46:07.658Z,16.92
2023-03-16T12:48:40.545Z,16.65
2023-03-16T12:51:07.229Z,16.36
2023-03-16T12:53:44.752Z,16.18
2023-03-16T12:56:44.503Z,16.47
2023-03-16T12:59:17.741Z,16.20
2023-03-16T13:01:44.821Z,16.40
2023-03-16T13:04:30.383Z,16.55
2023-03-16T13:07:27.570Z,16.85
2023-03-16T13:09:59.160Z,16.51
2023-03-16T13:12:29.936Z,16.60
2023-03-16T13:14:56.497Z,16.79
2023-03-16T13:17:29.363Z,16.70
2023-03-16T13:20:02.891Z,15.87
2023-03-16T13:22:41.036Z,15.31
2023-03-16T13:25:29.407Z,15.48
2023-03-16T13:27:59.268Z,15.60
2023-03-16T13:30:29.457Z,16.26
2023-03-16T13:33:14.868Z,15.43
2023-03-16T13:35:41.686Z,15.97
2023-03-16T13:38:14.541Z,16.16
2023-03-16T13:40:46.898Z,16.71
2023-03-16T13:43:17.684Z,16.65
2023-03-16T13:45:44.340Z,15.86
2023-03-16T13:48:14.989Z,15.53
2023-03-16T13:50:41.941Z,15.91
2023-03-16T13:53:31.907Z,16.00
2023-03-16T13:56:00.849Z,15.81
2023-03-16T13:58:35.371Z,15.60
2023-03-16T14:01:04.330Z,16.03
2023-03-16T14:03:33.743Z,16.22
2023-03-16T14:06:00.265Z,15.56
2023-03-16T14:08:26.928Z,15.28
2023-03-16T14:10:55.042Z,15.67
2023-03-16T14:13:27.788Z,15.51
2023-03-16T14:16:11.154Z,15.70
2023-03-16T14:18:43.829Z,15.61
2023-03-16T14:21:24.929Z,15.85
2023-03-16T14:24:13.159Z,15.34
2023-03-16T14:26:45.976Z,15.29
2023-03-16T14:29:31.468Z,14.97
2023-03-16T14:31:59.338Z,14.25
2023-03-16T14:34:30.351Z,13.62
2023-03-16T14:37:06.578Z,13.21
2023-03-16T14:39:33.105Z,13.09
2023-03-16T14:42:02.615Z,12.47
2023-03-16T14:44:32.568Z,11.56
2023-03-16T14:47:00.320Z,11.83
2023-03-16T14:49:28.424Z,11.90
2023-03-16T14:52:25.780Z,12.02
2023-03-16T14:54:52.294Z,11.71
2023-03-16T14:57:18.881Z,11.97
2023-03-16T14:59:45.598Z,12.69
2023-03-16T15:02:24.403Z,13.34
2023-03-16T15:04:51.309Z,14.10
2023-03-16T15:07:22.212Z,14.32
2023-03-16T15:09:50.242Z,14.34
2023-03-16T15:12:18.411Z,14.35
2023-03-16T15:14:46.127Z,14.30
2023-03-16T15:17:13.239Z,14.30
2023-03-16T15:19:40.033Z,13.52
2023-03-16T15:22:07.385Z,13.36
2023-03-16T15:24:34.229Z,13.08
2023-03-16T15:27:03.364Z,12.85
2023-03-16T15:29:30.450Z,12.01
2023-03-16T15:31:57.592Z,12.35
2023-03-16T15:34:24.429Z,11.96
2023-03-16T15:36:52.462Z,11.72
2023-03-16T15:39:25.061Z,11.24
2023-03-16T15:41:51.777Z,11.30
2023-03-16T15:44:18.786Z,11.02
2023-03-16T15:46:45.694Z,11.84
2023-03-16T15:49:15.931Z,12.45
2023-03-16T15:51:43.112Z,12.97
2023-03-16T15:54:12.442Z,13.36
2023-03-16T15:56:53.772Z,13.66
2023-03-16T15:59:25.316Z,14.10
2023-03-16T16:01:56.154Z,14.62
2023-03-16T16:04:23.736Z,15.16
2023-03-16T16:06:52.416Z,15.59
2023-03-16T16:09:29.039Z,16.18
2023-03-16T16:11:56.720Z,16.83
2023-03-16T16:14:28.682Z,16.75
2023-03-16T16:16:56.316Z,17.40
2023-03-16T16:19:27.852Z,17.28
2023-03-16T16:21:54.587Z,17.65
2023-03-16T16:24:21.817Z,17.80
2023-03-16T16:26:53.758Z,17.86
2023-03-16T16:29:48.305Z,18.25
2023-03-16T16:32:24.605Z,18.23
2023-03-16T16:35:03.890Z,18.86
2023-03-16T16:37:31.887Z,19.40
2023-03-16T16:40:00.574Z,19.61
2023-03-16T16:42:28.092Z,20.07
2023-03-16T16:44:57.572Z,20.51
2023-03-16T16:47:25.158Z,21.00
2023-03-16T16:49:52.893Z,20.40
2023-03-16T16:52:21.408Z,20.43
2023-03-16T16:54:48.643Z,20.87
2023-03-16T16:57:18.719Z,20.77
2023-03-16T16:59:48.186Z,21.30
2023-03-16T17:02:24.024Z,21.74
2023-03-16T17:04:51.121Z,21.84
2023-03-16T17:07:18.400Z,22.12
2023-03-16T17:09:48.846Z,22.23
2023-03-16T17:12:45.491Z,22.20
2023-03-16T17:15:21.925Z,22.55
2023-03-16T17:17:51.228Z,22.92
2023-03-16T17:20:23.001Z,23.05
2023-03-16T17:22:53.513Z,23.18
2023-03-16T17:25:21.275Z,23.18
2023-03-16T17:27:49.695Z,23.48
2023-03-16T17:30:28.298Z,23.54
2023-03-16T17:33:05.727Z,23.65
2023-03-16T17:35:32.797Z,23.70
2023-03-16T17:38:00.061Z,23.65
2023-03-16T17:40:26.837Z,23.86
2023-03-16T17:42:54.752Z,24.13
2023-03-16T17:45:35.058Z,24.24
2023-03-16T17:48:01.664Z,24.84
2023-03-16T17:50:28.674Z,25.14
2023-03-16T17:52:55.697Z,24.99
2023-03-16T17:55:23.668Z,25.65
2023-03-16T17:57:55.203Z,25.89
2023-03-16T18:00:32.492Z,26.13
2023-03-16T18:02:59.191Z,26.29
2023-03-16T18:05:31.678Z,26.55
2023-03-16T18:08:18.042Z,26.99
2023-03-16T18:10:45.804Z,27.06
2023-03-16T18:13:31.789Z,27.36
2023-03-16T18:15:59.932Z,27.62
2023-03-16T18:18:30.906Z,27.87
2023-03-16T18:20:57.599Z,28.20
2023-03-16T18:23:27.110Z,28.59
2023-03-16T18:25:56.727Z,28.60
2023-03-16T18:28:23.512Z,29.13
2023-03-16T18:30:52.335Z,28.73
2023-03-16T18:33:24.063Z,28.63
2023-03-16T18:35:52.963Z,28.48
2023-03-16T18:38:28.153Z,28.02
2023-03-16T18:40:54.792Z,27.63
2023-03-16T18:43:21.663Z,27.75
2023-03-16T18:45:49.141Z,28.27
2023-03-16T18:48:20.597Z,29.13
2023-03-16T18:50:47.685Z,28.96
2023-03-16T18:53:17.142Z,29.10
2023-03-16T18:55:43.908Z,29.77
2023-03-16T18:58:21.621Z,30.31
2023-03-16T19:00:57.403Z,30.76
2023-03-16T19:03:30.460Z,31.04
2023-03-16T19:06:00.171Z,31.57
2023-03-16T19:08:28.304Z,31.65
2023-03-16T19:11:01.100Z,31.73
2023-03-16T19:13:28.165Z,31.78
2023-03-16T19:15:56.224Z,32.43
2023-03-16T19:18:23.099Z,32.17
2023-03-16T19:20:50.794Z,32.48
2023-03-16T19:23:22.785Z,32.44
2023-03-16T19:25:50.477Z,32.55
2023-03-16T19:28:29.203Z,32.78
2023-03-16T19:30:57.404Z,33.16
2023-03-16T19:33:26.064Z,33.40
2023-03-16T19:35:54.260Z,33.93
2023-03-16T19:38:22.502Z,34.43
2023-03-16T19:40:58.879Z,34.60
2023-03-16T19:43:27.216Z,34.83
2023-03-16T19:45:55.318Z,34.92
2023-03-16T19:48:33.835Z,34.74
2023-03-16T19:51:00.832Z,34.73
2023-03-16T19:53:27.661Z,34.70
2023-03-16T19:55:54.609Z,34.80
2023-03-16T19:58:26.968Z,34.88
2023-03-16T20:00:54.022Z,35.04
2023-03-16T20:03:20.982Z,35.12
2023-03-16T20:05:47.584Z,35.35
2023-03-16T20:08:26.389Z,35.47
2023-03-16T20:10:59.388Z,35.75
2023-03-16T20:13:26.005Z,35.78
2023-03-16T20:15:52.711Z,35.73
2023-03-16T20:18:21.760Z,35.84
2023-03-16T20:20:48.387Z,36.45
2023-03-16T20:23:29.528Z,36.35
2023-03-16T20:26:01.388Z,36.68
2023-03-16T20:28:35.610Z,36.95
2023-03-16T20:31:03.109Z,37.27
2023-03-16T20:33:29.834Z,37.25
2023-03-16T20:35:56.785Z,37.59
2023-03-16T20:38:23.696Z,38.02
2023-03-16T20:40:53.414Z,38.24
2023-03-16T20:43:26.997Z,38.48
2023-03-16T20:45:56.094Z,38.57
2023-03-16T20:48:23.104Z,38.77
2023-03-16T20:50:49.617Z,38.96
2023-03-16T20:53:16.091Z,38.87
2023-03-16T20:55:43.014Z,39.19
2023-03-16T20:58:22.799Z,39.45
2023-03-16T21:00:50.619Z,39.75
2023-03-16T21:03:17.093Z,39.99
2023-03-16T21:05:44.482Z,40.35
2023-03-16T21:08:10.947Z,40.50
2023-03-16T21:10:37.497Z,40.59
2023-03-16T21:13:06.218Z,40.63
2023-03-16T21:15:33.529Z,40.96
2023-03-16T21:18:05.683Z,41.04
2023-03-16T21:20:34.591Z,41.23
2023-03-16T21:23:02.015Z,41.39
2023-03-16T21:25:32.210Z,41.56
2023-03-16T21:28:02.397Z,41.55
2023-03-16T21:30:32.448Z,41.81
2023-03-16T21:33:00.293Z,42.02
2023-03-16T21:35:33.145Z,42.09
2023-03-16T21:38:01.396Z,42.33
2023-03-16T21:40:28.319Z,42.47
2023-03-16T21:42:55.030Z,42.63
2023-03-16T21:45:21.592Z,42.73
2023-03-16T21:47:48.160Z,42.95
2023-03-16T21:50:26.630Z,43.17
2023-03-16T21:52:53.104Z,43.29
2023-03-16T21:55:24.032Z,43.51
2023-03-16T21:57:50.895Z,43.68
2023-03-16T22:00:24.701Z,43.96
2023-03-16T22:02:54.817Z,44.06
2023-03-16T22:05:36.605Z,44.34
2023-03-16T22:08:19.382Z,44.51
2023-03-16T22:10:49.859Z,44.75
2023-03-16T22:13:17.826Z,44.82
2023-03-16T22:15:45.908Z,45.10
2023-03-16T22:18:27.320Z,45.33
2023-03-16T22:20:55.656Z,45.35
2023-03-16T22:23:33.278Z,45.61
2023-03-16T22:26:04.591Z,45.79
2023-03-16T22:28:31.591Z,45.92
2023-03-16T22:31:00.118Z,46.02
2023-03-16T22:33:30.351Z,46.13
2023-03-16T22:36:14.070Z,46.47
2023-03-16T22:38:42.106Z,46.57
2023-03-16T22:41:12.834Z,46.68
2023-03-16T22:43:42.444Z,46.99
2023-03-16T22:46:24.493Z,47.16
2023-03-16T22:48:51.972Z,47.37
2023-03-16T22:51:26.517Z,47.35
2023-03-16T22:53:57.148Z,47.43
2023-03-16T22:56:24.308Z,47.44
2023-03-16T22:58:58.611Z,47.68
2023-03-16T23:01:39.496Z,47.43
2023-03-16T23:04:17.808Z,47.63
2023-03-16T23:06:45.074Z,47.60
2023-03-16T23:09:16.314Z,47.76
2023-03-16T23:11:44.485Z,47.94
2023-03-16T23:14:16.374Z,48.05
2023-03-16T23:16:43.958Z,48.21
2023-03-16T23:19:25.043Z,48.53
2023-03-16T23:21:53.792Z,48.73
2023-03-16T23:24:20.885Z,48.85
2023-03-16T23:26:47.918Z,48.84
2023-03-16T23:29:14.512Z,49.03
2023-03-16T23:31:40.998Z,49.18
2023-03-16T23:34:15.895Z,49.54
2023-03-16T23:36:42.863Z,49.55
2023-03-16T23:39:10.280Z,49.64
2023-03-16T23:41:39.161Z,49.73
2023-03-16T23:44:07.166Z,49.89
2023-03-16T23:46:34.733Z,50.06
2023-03-16T23:49:05.476Z,50.16
2023-03-16T23:51:36.870Z,50.29
2023-03-16T23:54:31.110Z,50.30
2023-03-16T23:56:57.774Z,50.58
2023-03-16T23:59:25.616Z,50.64
